Time;durP1;ratioP1;P1;durP2;ratioP2;P2;SDS_P1;SDS_P2;PMS_P1;PMS_P2;Temp;Humidity;BMP_temperature;BMP_pressure;BME280_temperature;BME280_humidity;BME280_pressure;Samples;Min_cycle;Max_cycle;Signal;HPM_P1;HPM_P2
2022/09/08 00:04:23;;;;;;;6.13;3.67;;;;;;;;;;10345665;28;20064;-65
2022/09/08 00:09:22;;;;;;;4.95;3.47;;;;;;;;;;10345868;28;20072;-64
2022/09/08 00:14:20;;;;;;;5.55;4.00;;;;;;;;;;10346004;28;20465;-65
2022/09/08 00:19:19;;;;;;;6.40;3.78;;;;;;;;;;10343764;28;20079;-64
2022/09/08 00:24:18;;;;;;;4.15;3.55;;;;;;;;;;10344929;28;20118;-64
2022/09/08 00:29:16;;;;;;;6.60;3.15;;;;;;;;;;10344355;28;20452;-64
2022/09/08 00:34:14;;;;;;;4.70;3.60;;;;;;;;;;10343189;28;20081;-65
2022/09/08 00:39:13;;;;;;;4.45;3.92;;;;;;;;;;10342807;28;20079;-64
2022/09/08 00:44:26;;;;;;;3.85;3.47;;;;;;;;;;10344150;28;20071;-65
2022/09/08 00:49:25;;;;;;;3.88;3.47;;;;;;;;;;10334817;28;20153;-66
2022/09/08 00:54:23;;;;;;;4.00;3.60;;;;;;;;;;10340364;28;20056;-65
2022/09/08 00:59:24;;;;;;;3.85;3.50;;;;;;;;;;10339454;28;20072;-65
2022/09/08 01:04:23;;;;;;;5.03;3.42;;;;;;;;;;10340373;28;20079;-66
2022/09/08 01:14:46;;;;;;;4.60;3.40;;;;;;;;;;10339172;28;20116;-64
2022/09/08 01:19:46;;;;;;;6.18;3.50;;;;;;;;;;10342126;28;20074;-64
2022/09/08 01:24:50;;;;;;;6.50;3.78;;;;;;;;;;10342429;28;20158;-64
2022/09/08 01:29:51;;;;;;;4.75;3.63;;;;;;;;;;10341428;28;20084;-64
2022/09/08 01:34:50;;;;;;;4.60;3.47;;;;;;;;;;10310861;28;20063;-65
2022/09/08 01:39:48;;;;;;;5.45;3.60;;;;;;;;;;10301479;28;20087;-65
2022/09/08 01:44:46;;;;;;;3.97;3.38;;;;;;;;;;10300528;28;20458;-65
2022/09/08 01:49:46;;;;;;;5.07;3.53;;;;;;;;;;10308927;28;20083;-65
2022/09/08 01:54:44;;;;;;;3.95;3.38;;;;;;;;;;10314777;28;20045;-65
2022/09/08 01:59:42;;;;;;;4.90;4.15;;;;;;;;;;10314573;28;20098;-62
2022/09/08 02:04:40;;;;;;;4.32;3.58;;;;;;;;;;10300680;28;20469;-61
2022/09/08 02:09:40;;;;;;;4.20;3.33;;;;;;;;;;10298751;28;20067;-62
2022/09/08 02:14:38;;;;;;;4.00;3.30;;;;;;;;;;10299897;28;20075;-62
2022/09/08 02:19:36;;;;;;;3.70;3.40;;;;;;;;;;10299095;28;20457;-63
2022/09/08 02:24:34;;;;;;;5.30;4.10;;;;;;;;;;10299371;28;20040;-62
2022/09/08 02:29:34;;;;;;;4.60;3.53;;;;;;;;;;10296635;28;20068;-62
2022/09/08 02:34:32;;;;;;;3.60;3.10;;;;;;;;;;10298141;28;20072;-61
2022/09/08 02:39:30;;;;;;;9.00;3.53;;;;;;;;;;10299433;28;20487;-62
2022/09/08 02:44:29;;;;;;;4.68;4.07;;;;;;;;;;10289943;28;20052;-62
2022/09/08 02:49:30;;;;;;;5.03;3.58;;;;;;;;;;10299131;28;20138;-62
2022/09/08 02:54:28;;;;;;;4.00;3.60;;;;;;;;;;10298001;28;20093;-63
2022/09/08 02:59:26;;;;;;;4.72;3.63;;;;;;;;;;10292520;28;20072;-62
2022/09/08 03:04:26;;;;;;;4.35;3.70;;;;;;;;;;10298451;28;20047;-62
2022/09/08 03:09:25;;;;;;;4.22;3.83;;;;;;;;;;10292420;28;20162;-62
2022/09/08 03:14:23;;;;;;;7.95;4.18;;;;;;;;;;10298789;28;20040;-63
2022/09/08 03:19:22;;;;;;;3.88;3.55;;;;;;;;;;10298861;28;20106;-62
2022/09/08 03:24:20;;;;;;;4.65;3.17;;;;;;;;;;10305664;28;20071;-62
2022/09/08 03:29:19;;;;;;;8.20;4.00;;;;;;;;;;10305812;28;20073;-62
2022/09/08 03:34:17;;;;;;;6.00;4.03;;;;;;;;;;10331541;28;20094;-62
2022/09/08 03:39:16;;;;;;;7.90;4.05;;;;;;;;;;10345672;28;20075;-62
2022/09/08 03:44:14;;;;;;;3.50;3.20;;;;;;;;;;10345925;28;20516;-62
2022/09/08 03:49:13;;;;;;;4.25;3.60;;;;;;;;;;10346002;28;20118;-62
2022/09/08 03:59:28;;;;;;;7.88;3.78;;;;;;;;;;10339608;28;20119;-62
2022/09/08 04:04:28;;;;;;;7.35;4.00;;;;;;;;;;10340011;28;20493;-61
2022/09/08 04:09:27;;;;;;;4.10;3.15;;;;;;;;;;10345019;28;20048;-62
2022/09/08 04:14:25;;;;;;;6.63;4.07;;;;;;;;;;10339146;28;20112;-61
2022/09/08 04:19:23;;;;;;;5.35;3.63;;;;;;;;;;10345117;28;20445;-62
2022/09/08 04:24:23;;;;;;;4.90;3.40;;;;;;;;;;10345130;28;20067;-61
2022/09/08 04:29:22;;;;;;;7.07;4.97;;;;;;;;;;10341520;28;20071;-62
2022/09/08 04:34:20;;;;;;;6.13;3.80;;;;;;;;;;10339614;28;20094;-62
2022/09/08 04:39:20;;;;;;;4.57;3.65;;;;;;;;;;10335905;28;20068;-63
2022/09/08 04:44:20;;;;;;;4.35;3.80;;;;;;;;;;10347204;28;20140;-63
2022/09/08 04:49:18;;;;;;;4.95;3.72;;;;;;;;;;10345874;28;20461;-63
2022/09/08 04:54:17;;;;;;;5.28;4.10;;;;;;;;;;10341347;28;20516;-62
2022/09/08 04:59:15;;;;;;;4.40;3.75;;;;;;;;;;10343262;28;20078;-62
2022/09/08 05:04:15;;;;;;;7.80;4.50;;;;;;;;;;10347719;28;20819;-62
2022/09/08 05:09:13;;;;;;;12.27;9.73;;;;;;;;;;10346040;28;20079;-62
2022/09/08 05:14:11;;;;;;;7.70;6.55;;;;;;;;;;10348145;28;20072;-62
2022/09/08 05:19:12;;;;;;;11.90;6.78;;;;;;;;;;10345190;28;20067;-62
2022/09/08 05:24:12;;;;;;;8.00;3.70;;;;;;;;;;10330061;28;20079;-62
2022/09/08 05:29:10;;;;;;;5.90;5.35;;;;;;;;;;10340658;28;20082;-63
2022/09/08 05:34:08;;;;;;;7.15;4.18;;;;;;;;;;10348700;28;20071;-62
2022/09/08 05:39:07;;;;;;;3.47;3.17;;;;;;;;;;10344870;28;20505;-62
2022/09/08 05:44:08;;;;;;;26.98;22.02;;;;;;;;;;10343961;28;20833;-63
2022/09/08 05:49:06;;;;;;;8.63;6.40;;;;;;;;;;10351953;28;20083;-62
2022/09/08 05:54:04;;;;;;;28.80;24.40;;;;;;;;;;10351806;28;20849;-62
2022/09/08 05:59:03;;;;;;;14.30;9.85;;;;;;;;;;10353067;28;20083;-64
2022/09/08 06:04:03;;;;;;;3.88;3.50;;;;;;;;;;10340516;28;20059;-62
2022/09/08 06:09:01;;;;;;;6.70;4.60;;;;;;;;;;10346249;28;20075;-62
2022/09/08 06:13:59;;;;;;;6.05;3.28;;;;;;;;;;10342419;28;20066;-62
2022/09/08 06:18:58;;;;;;;16.55;11.38;;;;;;;;;;10337110;28;20067;-62
2022/09/08 06:23:59;;;;;;;17.88;6.10;;;;;;;;;;10331008;28;20079;-61
2022/09/08 06:29:00;;;;;;;6.80;4.55;;;;;;;;;;10335069;28;20501;-62
2022/09/08 06:34:02;;;;;;;5.23;3.57;;;;;;;;;;10294580;28;1141047;-62
2022/09/08 06:39:03;;;;;;;8.73;3.80;;;;;;;;;;10334958;28;20507;-61
2022/09/08 06:44:04;;;;;;;10.35;8.60;;;;;;;;;;10336459;28;20500;-61
2022/09/08 06:49:02;;;;;;;10.38;6.45;;;;;;;;;;10340861;28;20067;-61
2022/09/08 06:54:07;;;;;;;9.77;5.30;;;;;;;;;;10340499;28;20075;-62
2022/09/08 06:59:08;;;;;;;9.77;7.57;;;;;;;;;;10346608;28;20078;-61
2022/09/08 07:04:11;;;;;;;14.50;5.97;;;;;;;;;;10345779;28;20076;-62
2022/09/08 07:09:17;;;;;;;8.05;3.58;;;;;;;;;;10347289;28;20501;-63
2022/09/08 07:14:42;;;;;;;8.45;3.95;;;;;;;;;;10347358;28;20429;-62
2022/09/08 07:19:44;;;;;;;3.45;3.08;;;;;;;;;;10325295;28;20521;-62
2022/09/08 07:24:45;;;;;;;5.05;4.00;;;;;;;;;;10360905;28;20055;-62
2022/09/08 07:29:45;;;;;;;7.85;3.22;;;;;;;;;;10361226;28;20043;-61
2022/09/08 07:34:47;;;;;;;6.03;4.95;;;;;;;;;;10347321;28;20090;-62
2022/09/08 07:39:48;;;;;;;5.53;2.60;;;;;;;;;;10345810;28;20114;-61
2022/09/08 07:44:47;;;;;;;6.55;4.55;;;;;;;;;;10347068;28;20059;-61
2022/09/08 07:49:50;;;;;;;5.57;4.20;;;;;;;;;;10346996;28;20063;-62
2022/09/08 07:54:58;;;;;;;5.88;4.03;;;;;;;;;;10343743;28;20102;-62
2022/09/08 08:00:00;;;;;;;6.28;4.88;;;;;;;;;;10345241;28;20094;-62
2022/09/08 08:05:03;;;;;;;6.15;3.42;;;;;;;;;;10345712;28;20458;-61
2022/09/08 08:10:05;;;;;;;4.72;3.40;;;;;;;;;;10344379;28;20106;-61
2022/09/08 08:15:07;;;;;;;5.78;3.47;;;;;;;;;;10345269;28;20507;-60
2022/09/08 08:20:12;;;;;;;4.15;2.85;;;;;;;;;;10345641;28;20067;-61
2022/09/08 08:25:15;;;;;;;7.00;3.22;;;;;;;;;;10345030;28;20154;-61
2022/09/08 08:30:17;;;;;;;7.05;3.10;;;;;;;;;;10345198;28;20055;-61
2022/09/08 08:35:18;;;;;;;3.90;3.03;;;;;;;;;;10346078;28;20082;-61
2022/09/08 08:40:35;;;;;;;4.55;2.80;;;;;;;;;;10344344;28;20105;-60
2022/09/08 08:45:40;;;;;;;8.10;3.40;;;;;;;;;;10346213;28;20071;-61
2022/09/08 08:50:59;;;;;;;5.40;3.00;;;;;;;;;;10344387;28;20185;-61
2022/09/08 08:56:03;;;;;;;6.97;3.40;;;;;;;;;;10346203;28;20071;-61
2022/09/08 09:01:05;;;;;;;3.20;2.90;;;;;;;;;;10345732;28;20078;-61
2022/09/08 09:06:21;;;;;;;8.80;4.93;;;;;;;;;;10357512;28;20294;-62
2022/09/08 09:11:33;;;;;;;10.57;4.07;;;;;;;;;;10343044;28;20078;-63
2022/09/08 09:16:49;;;;;;;2.97;2.58;;;;;;;;;;10350486;28;20075;-60
2022/09/08 09:21:52;;;;;;;2.72;2.53;;;;;;;;;;10338756;28;20083;-62
2022/09/08 09:26:53;;;;;;;3.20;2.83;;;;;;;;;;10357187;28;20076;-62
2022/09/08 09:32:19;;;;;;;5.25;2.72;;;;;;;;;;10356597;28;20086;-62
2022/09/08 09:37:31;;;;;;;4.03;2.83;;;;;;;;;;10344385;28;20079;-61
2022/09/08 09:42:39;;;;;;;7.82;3.20;;;;;;;;;;10342511;28;20071;-62
2022/09/08 09:47:50;;;;;;;9.30;3.88;;;;;;;;;;10343631;28;20492;-62
2022/09/08 09:52:56;;;;;;;7.30;4.28;;;;;;;;;;10336369;28;20036;-62
2022/09/08 09:58:24;;;;;;;7.18;4.35;;;;;;;;;;10343065;28;20088;-61
2022/09/08 10:03:40;;;;;;;9.63;4.07;;;;;;;;;;10325009;28;20083;-62
2022/09/08 10:08:54;;;;;;;7.38;4.47;;;;;;;;;;10339306;28;20075;-63
2022/09/08 10:14:10;;;;;;;5.88;3.45;;;;;;;;;;10337368;28;20078;-61
2022/09/08 10:19:16;;;;;;;7.45;3.55;;;;;;;;;;10341319;28;20098;-62
2022/09/08 10:24:43;;;;;;;5.60;3.67;;;;;;;;;;10354780;28;20072;-62
2022/09/08 10:29:51;;;;;;;2.72;2.35;;;;;;;;;;10338156;28;20500;-62
2022/09/08 10:35:03;;;;;;;8.38;3.60;;;;;;;;;;10364095;28;20091;-62
2022/09/08 10:40:09;;;;;;;4.28;2.35;;;;;;;;;;10349342;28;20066;-62
2022/09/08 10:45:18;;;;;;;5.70;2.90;;;;;;;;;;10348063;28;21117;-62
2022/09/08 10:50:18;;;;;;;6.82;3.03;;;;;;;;;;10349777;28;20044;-62
2022/09/08 10:55:37;;;;;;;5.30;3.25;;;;;;;;;;10349000;28;20068;-62
2022/09/08 11:00:44;;;;;;;4.70;4.05;;;;;;;;;;10346751;28;20039;-61
2022/09/08 11:05:48;;;;;;;3.88;2.53;;;;;;;;;;10347951;28;20068;-61
2022/09/08 11:10:56;;;;;;;6.80;3.05;;;;;;;;;;10348261;28;20052;-60
2022/09/08 11:16:15;;;;;;;8.27;3.72;;;;;;;;;;10348937;28;20238;-61
2022/09/08 11:21:18;;;;;;;7.40;3.03;;;;;;;;;;10347034;28;20068;-61
2022/09/08 11:26:25;;;;;;;3.05;2.75;;;;;;;;;;10347883;28;20052;-61
2022/09/08 11:31:32;;;;;;;3.70;3.00;;;;;;;;;;10348619;28;20063;-61
2022/09/08 11:36:38;;;;;;;4.07;3.67;;;;;;;;;;10345078;28;20107;-61
2022/09/08 11:41:52;;;;;;;4.72;4.28;;;;;;;;;;10347733;28;20105;-62
2022/09/08 11:46:59;;;;;;;5.93;2.70;;;;;;;;;;10348218;28;20072;-62
2022/09/08 11:52:12;;;;;;;7.78;5.22;;;;;;;;;;10347659;28;20048;-61
2022/09/08 11:57:37;;;;;;;3.72;2.78;;;;;;;;;;10344083;28;20079;-61
2022/09/08 12:02:46;;;;;;;3.80;3.40;;;;;;;;;;10347616;28;20528;-62
2022/09/08 12:07:59;;;;;;;6.50;5.90;;;;;;;;;;10339638;28;21122;-61
2022/09/08 12:13:00;;;;;;;3.17;2.87;;;;;;;;;;10342005;28;20076;-62
2022/09/08 12:18:17;;;;;;;2.97;2.60;;;;;;;;;;10346674;28;20044;-62
2022/09/08 12:23:30;;;;;;;3.35;3.05;;;;;;;;;;10344863;28;20083;-62
2022/09/08 12:28:43;;;;;;;3.67;3.13;;;;;;;;;;10342592;28;20072;-62
2022/09/08 12:33:49;;;;;;;4.15;3.03;;;;;;;;;;10323128;28;20048;-61
2022/09/08 12:38:55;;;;;;;5.68;5.05;;;;;;;;;;10303619;28;20071;-62
2022/09/08 12:43:59;;;;;;;3.80;2.75;;;;;;;;;;10302621;28;20083;-62
2022/09/08 12:49:27;;;;;;;3.28;2.70;;;;;;;;;;10314012;28;20044;-61
2022/09/08 12:54:33;;;;;;;5.72;2.40;;;;;;;;;;10313361;28;20437;-62
2022/09/08 12:59:42;;;;;;;5.90;2.90;;;;;;;;;;10316393;28;20053;-62
2022/09/08 13:04:51;;;;;;;6.88;2.90;;;;;;;;;;10293277;28;20317;-62
2022/09/08 13:09:57;;;;;;;4.47;3.10;;;;;;;;;;10310860;28;20049;-63
2022/09/08 13:15:13;;;;;;;4.90;3.08;;;;;;;;;;10311695;28;20041;-62
2022/09/08 13:20:17;;;;;;;7.97;6.00;;;;;;;;;;10314388;28;20083;-62
2022/09/08 13:25:18;;;;;;;5.13;2.55;;;;;;;;;;10311978;28;20080;-62
2022/09/08 13:30:19;;;;;;;7.53;3.05;;;;;;;;;;10294597;28;20099;-61
2022/09/08 13:35:31;;;;;;;6.30;2.97;;;;;;;;;;10306528;28;20495;-61
2022/09/08 13:40:36;;;;;;;7.68;5.63;;;;;;;;;;10312249;28;20092;-61
2022/09/08 13:45:41;;;;;;;7.43;2.40;;;;;;;;;;10298120;28;20079;-61
2022/09/08 13:50:47;;;;;;;7.07;3.83;;;;;;;;;;10300040;28;20439;-62
2022/09/08 13:55:52;;;;;;;6.45;2.90;;;;;;;;;;10301025;28;20506;-62
2022/09/08 14:01:07;;;;;;;3.78;3.28;;;;;;;;;;10300935;28;20794;-62
2022/09/08 14:06:10;;;;;;;5.35;3.10;;;;;;;;;;10300859;28;20068;-62
2022/09/08 14:11:11;;;;;;;6.47;3.30;;;;;;;;;;10300080;28;20080;-62
2022/09/08 14:16:24;;;;;;;11.00;2.88;;;;;;;;;;10300928;28;20072;-62
2022/09/08 14:21:29;;;;;;;3.45;2.65;;;;;;;;;;10299490;28;20060;-61
2022/09/08 14:26:45;;;;;;;7.13;3.05;;;;;;;;;;10301340;28;20071;-62
2022/09/08 14:31:47;;;;;;;4.35;3.92;;;;;;;;;;10304664;28;20056;-62
2022/09/08 14:36:52;;;;;;;5.43;3.58;;;;;;;;;;10341584;28;20064;-60
2022/09/08 14:41:51;;;;;;;3.60;2.60;;;;;;;;;;10342388;28;20033;-63
2022/09/08 14:46:51;;;;;;;6.15;4.45;;;;;;;;;;10341893;28;20078;-60
2022/09/08 14:51:54;;;;;;;7.97;3.70;;;;;;;;;;10338022;28;20205;-62
2022/09/08 14:57:05;;;;;;;6.53;3.57;;;;;;;;;;10338083;28;20475;-62
2022/09/08 15:02:17;;;;;;;8.93;4.93;;;;;;;;;;10338371;28;20072;-62
2022/09/08 15:07:18;;;;;;;4.68;4.20;;;;;;;;;;10338895;28;20072;-62
2022/09/08 15:12:30;;;;;;;8.45;5.32;;;;;;;;;;10337700;28;20081;-62
2022/09/08 15:17:29;;;;;;;3.25;2.58;;;;;;;;;;10343015;28;20071;-61
2022/09/08 15:22:32;;;;;;;4.63;3.40;;;;;;;;;;10347899;28;20524;-62
2022/09/08 15:27:32;;;;;;;8.48;3.47;;;;;;;;;;10346120;28;20044;-62
2022/09/08 15:32:52;;;;;;;10.95;4.78;;;;;;;;;;10346212;28;20345;-62
2022/09/08 15:37:56;;;;;;;8.07;3.25;;;;;;;;;;10335713;28;20092;-62
2022/09/08 15:42:58;;;;;;;4.95;3.78;;;;;;;;;;10341426;28;20478;-62
2022/09/08 15:48:07;;;;;;;6.32;4.63;;;;;;;;;;10346145;28;20068;-62
2022/09/08 15:53:19;;;;;;;11.18;3.88;;;;;;;;;;10346630;28;20522;-61
2022/09/08 15:58:28;;;;;;;7.68;5.20;;;;;;;;;;10344673;28;20502;-62
2022/09/08 16:03:38;;;;;;;9.55;6.57;;;;;;;;;;10345512;28;20083;-62
2022/09/08 16:08:43;;;;;;;10.55;5.68;;;;;;;;;;10342828;28;20095;-62
2022/09/08 16:13:51;;;;;;;23.75;10.75;;;;;;;;;;10343522;28;20072;-62
2022/09/08 16:18:54;;;;;;;15.18;4.53;;;;;;;;;;10344261;28;20090;-63
2022/09/08 16:23:59;;;;;;;11.60;6.38;;;;;;;;;;10345760;28;20468;-63
2022/09/08 16:29:01;;;;;;;12.80;5.80;;;;;;;;;;10348664;28;20102;-62
2022/09/08 16:34:17;;;;;;;9.57;5.40;;;;;;;;;;10357931;28;20079;-62
2022/09/08 16:39:19;;;;;;;14.02;6.03;;;;;;;;;;10357767;28;20071;-62
2022/09/08 16:44:26;;;;;;;12.55;4.85;;;;;;;;;;10356726;28;20071;-62
2022/09/08 16:49:28;;;;;;;9.57;4.32;;;;;;;;;;10348235;28;20075;-61
2022/09/08 16:54:47;;;;;;;6.03;4.20;;;;;;;;;;10333978;28;20083;-64
2022/09/08 16:59:52;;;;;;;8.52;3.80;;;;;;;;;;10348739;28;20075;-63
2022/09/08 17:04:51;;;;;;;7.47;3.92;;;;;;;;;;10348617;28;20071;-63
2022/09/08 17:09:52;;;;;;;6.40;4.38;;;;;;;;;;10348334;28;20068;-63
2022/09/08 17:14:59;;;;;;;4.35;3.97;;;;;;;;;;10344647;28;20064;-63
2022/09/08 17:20:01;;;;;;;9.88;4.60;;;;;;;;;;10349210;28;20073;-63
2022/09/08 17:25:21;;;;;;;7.88;4.13;;;;;;;;;;10343414;28;20082;-63
2022/09/08 17:30:21;;;;;;;4.50;4.10;;;;;;;;;;10343781;28;20126;-62
2022/09/08 17:35:22;;;;;;;8.52;5.05;;;;;;;;;;10348449;28;20079;-61
2022/09/08 17:40:26;;;;;;;11.40;5.00;;;;;;;;;;10349133;28;20113;-62
2022/09/08 17:45:29;;;;;;;8.50;4.45;;;;;;;;;;10346288;28;20072;-64
2022/09/08 17:50:30;;;;;;;7.33;4.03;;;;;;;;;;10345921;28;20079;-63
2022/09/08 17:55:36;;;;;;;5.50;4.40;;;;;;;;;;10348324;28;20078;-62
2022/09/08 18:00:37;;;;;;;9.35;3.88;;;;;;;;;;10349141;28;20079;-61
2022/09/08 18:05:38;;;;;;;5.80;3.38;;;;;;;;;;10348917;28;20072;-62
2022/09/08 18:10:46;;;;;;;4.20;3.80;;;;;;;;;;10348268;28;20087;-63
2022/09/08 18:15:52;;;;;;;7.03;3.17;;;;;;;;;;10345139;28;20082;-61
2022/09/08 18:20:55;;;;;;;7.22;3.30;;;;;;;;;;10345025;28;20520;-64
2022/09/08 18:25:58;;;;;;;13.40;2.97;;;;;;;;;;10348457;28;20072;-63
2022/09/08 18:31:09;;;;;;;5.70;3.50;;;;;;;;;;10343587;28;20578;-63
2022/09/08 18:36:12;;;;;;;5.45;3.30;;;;;;;;;;10347817;28;20067;-64
2022/09/08 18:41:17;;;;;;;7.07;3.50;;;;;;;;;;10348609;28;20481;-64
2022/09/08 18:46:32;;;;;;;8.30;3.40;;;;;;;;;;10343158;28;20060;-63
2022/09/08 18:51:39;;;;;;;7.72;3.42;;;;;;;;;;10345962;28;20066;-63
2022/09/08 18:56:44;;;;;;;6.68;3.60;;;;;;;;;;10351663;28;20472;-62
2022/09/08 19:01:53;;;;;;;7.10;5.10;;;;;;;;;;10355092;28;20079;-63
2022/09/08 19:06:55;;;;;;;5.47;3.80;;;;;;;;;;10352486;28;20067;-64
2022/09/08 19:12:02;;;;;;;6.07;3.97;;;;;;;;;;10354285;28;20075;-63
2022/09/08 19:17:04;;;;;;;4.55;3.00;;;;;;;;;;10357303;28;20489;-64
2022/09/08 19:22:10;;;;;;;4.55;3.03;;;;;;;;;;10361309;28;20077;-63
2022/09/08 19:27:26;;;;;;;4.80;3.72;;;;;;;;;;10339892;28;20078;-61
2022/09/08 19:32:42;;;;;;;6.38;3.60;;;;;;;;;;10348572;28;20082;-60
2022/09/08 19:37:52;;;;;;;4.70;3.67;;;;;;;;;;10348407;28;20454;-60
2022/09/08 19:43:05;;;;;;;4.75;3.78;;;;;;;;;;10352232;28;20067;-61
2022/09/08 19:48:15;;;;;;;4.35;2.80;;;;;;;;;;10352075;28;20067;-59
2022/09/08 19:53:21;;;;;;;4.00;3.35;;;;;;;;;;10352257;28;20070;-61
2022/09/08 19:58:32;;;;;;;11.85;4.45;;;;;;;;;;10351008;28;20131;-62
2022/09/08 20:03:32;;;;;;;9.40;3.75;;;;;;;;;;10359377;28;20075;-60
2022/09/08 20:08:40;;;;;;;8.13;3.95;;;;;;;;;;10358735;28;20075;-61
2022/09/08 20:13:50;;;;;;;5.63;3.78;;;;;;;;;;10357731;28;20074;-62
2022/09/08 20:18:53;;;;;;;3.85;3.28;;;;;;;;;;10346295;28;20076;-61
2022/09/08 20:23:59;;;;;;;5.70;3.33;;;;;;;;;;10345661;28;20084;-60
2022/09/08 20:29:09;;;;;;;5.85;3.38;;;;;;;;;;10349258;28;20099;-61
2022/09/08 20:34:18;;;;;;;4.75;3.90;;;;;;;;;;10351857;28;20088;-61
2022/09/08 20:39:30;;;;;;;4.28;3.83;;;;;;;;;;10344577;28;20083;-62
2022/09/08 20:44:30;;;;;;;7.65;3.17;;;;;;;;;;10348506;28;20560;-62
2022/09/08 20:49:39;;;;;;;7.28;3.83;;;;;;;;;;10350552;28;20070;-62
2022/09/08 20:54:39;;;;;;;4.75;3.42;;;;;;;;;;10332936;28;20072;-62
2022/09/08 20:59:46;;;;;;;4.63;3.10;;;;;;;;;;10335429;28;20074;-61
2022/09/08 21:04:49;;;;;;;9.52;3.35;;;;;;;;;;10351787;28;20075;-61
2022/09/08 21:09:54;;;;;;;6.00;3.10;;;;;;;;;;10352868;28;20098;-62
2022/09/08 21:14:58;;;;;;;5.90;3.25;;;;;;;;;;10337010;28;20073;-61
2022/09/08 21:20:01;;;;;;;6.72;3.00;;;;;;;;;;10338701;28;20071;-60
2022/09/08 21:25:03;;;;;;;4.87;2.90;;;;;;;;;;10353173;28;20501;-62
2022/09/08 21:30:05;;;;;;;4.47;3.08;;;;;;;;;;10355220;28;20090;-61
2022/09/08 21:35:07;;;;;;;6.65;3.05;;;;;;;;;;10350109;28;20086;-60
2022/09/08 21:40:17;;;;;;;4.63;3.00;;;;;;;;;;10337825;28;20066;-61
2022/09/08 21:45:19;;;;;;;4.72;3.10;;;;;;;;;;10342159;28;20072;-61
2022/09/08 21:50:19;;;;;;;3.65;2.67;;;;;;;;;;10340120;28;20079;-60
2022/09/08 21:55:23;;;;;;;4.50;3.05;;;;;;;;;;10339643;28;20539;-61
2022/09/08 22:00:24;;;;;;;7.97;3.33;;;;;;;;;;10338847;28;20335;-61
2022/09/08 22:05:25;;;;;;;8.95;3.25;;;;;;;;;;10338080;28;20072;-59
2022/09/08 22:10:25;;;;;;;3.85;3.10;;;;;;;;;;10341704;28;20466;-61
2022/09/08 22:15:27;;;;;;;4.47;3.53;;;;;;;;;;10342827;28;20063;-60
2022/09/08 22:20:29;;;;;;;4.00;2.83;;;;;;;;;;10342809;28;20449;-62
2022/09/08 22:25:37;;;;;;;3.30;2.53;;;;;;;;;;10343838;28;20075;-61
2022/09/08 22:30:44;;;;;;;6.28;2.67;;;;;;;;;;10351309;28;20516;-61
2022/09/08 22:35:50;;;;;;;5.55;2.65;;;;;;;;;;10351216;28;20066;-61
2022/09/08 22:40:50;;;;;;;3.70;2.95;;;;;;;;;;10354207;28;20067;-62
2022/09/08 22:45:53;;;;;;;3.10;2.70;;;;;;;;;;10363224;28;20449;-62
2022/09/08 22:50:57;;;;;;;3.50;3.05;;;;;;;;;;10363648;28;20102;-60
2022/09/08 22:55:56;;;;;;;4.18;2.95;;;;;;;;;;10353230;28;20064;-61
2022/09/08 23:00:57;;;;;;;6.05;2.60;;;;;;;;;;10349189;28;20044;-61
2022/09/08 23:05:58;;;;;;;5.63;2.40;;;;;;;;;;10349807;28;20067;-62
2022/09/08 23:11:00;;;;;;;5.28;2.40;;;;;;;;;;10349237;28;20067;-62
2022/09/08 23:16:01;;;;;;;5.55;2.20;;;;;;;;;;10350093;28;20080;-63
2022/09/08 23:21:08;;;;;;;4.78;2.63;;;;;;;;;;10348204;28;20044;-61
2022/09/08 23:26:16;;;;;;;6.97;2.60;;;;;;;;;;10348645;28;20090;-62
2022/09/08 23:31:23;;;;;;;3.75;2.70;;;;;;;;;;10347342;28;20153;-62
2022/09/08 23:36:22;;;;;;;3.40;2.85;;;;;;;;;;10347986;28;20072;-62
2022/09/08 23:41:23;;;;;;;4.00;2.78;;;;;;;;;;10348266;28;20494;-61
2022/09/08 23:46:28;;;;;;;5.25;2.47;;;;;;;;;;10354847;28;20500;-61
2022/09/08 23:51:30;;;;;;;3.72;2.50;;;;;;;;;;10341507;28;20075;-61
2022/09/08 23:56:30;;;;;;;4.35;2.25;;;;;;;;;;10361705;28;20067;-61
